createdAt,value
2023-04-27T00:02:41.807Z,10.56
2023-04-27T00:07:43.549Z,9.63
2023-04-27T00:12:45.576Z,10.93
2023-04-27T00:17:47.216Z,9.76
2023-04-27T00:22:48.911Z,10.21
2023-04-27T00:27:50.599Z,9.75
2023-04-27T00:32:52.233Z,9.72
2023-04-27T00:37:54.994Z,10.15
2023-04-27T00:42:56.659Z,9.36
2023-04-27T00:47:59.343Z,9.52
2023-04-27T00:53:01.529Z,7.88
2023-04-27T00:58:03.035Z,8.48
2023-04-27T01:03:04.837Z,7.96
2023-04-27T01:08:06.659Z,7.16
2023-04-27T01:13:08.243Z,7.65
2023-04-27T01:18:10.001Z,7.41
2023-04-27T01:23:17.264Z,7.58
2023-04-27T01:28:19.263Z,8.22
2023-04-27T01:33:20.854Z,7.70
2023-04-27T01:38:24.215Z,7.65
2023-04-27T01:43:26.356Z,7.36
2023-04-27T01:48:28.028Z,7.31
2023-04-27T01:53:30.221Z,7.87
2023-04-27T01:58:32.579Z,8.24
2023-04-27T02:03:34.287Z,8.21
2023-04-27T02:08:36.400Z,7.97
2023-04-27T02:13:38.001Z,7.59
2023-04-27T02:18:40.419Z,7.64
2023-04-27T02:23:41.945Z,8.03
2023-04-27T02:28:43.551Z,6.78
2023-04-27T02:33:45.672Z,7.81
2023-04-27T02:38:47.264Z,7.03
2023-04-27T02:43:50.615Z,7.42
2023-04-27T02:48:52.222Z,7.81
2023-04-27T02:53:54.312Z,7.58
2023-04-27T02:58:56.392Z,7.74
2023-04-27T03:03:58.310Z,7.84
2023-04-27T03:09:00.015Z,7.64
2023-04-27T03:14:01.851Z,7.08
2023-04-27T03:19:03.962Z,7.24
2023-04-27T03:24:05.931Z,7.97
2023-04-27T03:29:07.568Z,7.89
2023-04-27T03:34:09.168Z,7.87
2023-04-27T03:39:11.034Z,7.29
2023-04-27T03:44:12.776Z,7.54
2023-04-27T03:49:14.544Z,7.65
2023-04-27T03:54:16.404Z,8.21
2023-04-27T03:59:18.110Z,8.04
2023-04-27T04:04:19.930Z,8.58
2023-04-27T04:09:23.709Z,8.15
2023-04-27T04:14:25.573Z,8.53
2023-04-27T04:19:27.193Z,8.11
2023-04-27T04:24:28.742Z,8.55
2023-04-27T04:29:30.713Z,9.88
2023-04-27T04:34:33.525Z,8.82
2023-04-27T04:39:35.098Z,9.00
2023-04-27T04:44:36.665Z,8.98
2023-04-27T04:49:38.216Z,8.04
2023-04-27T04:54:40.000Z,7.86
2023-04-27T05:05:32.278Z,5.09
2023-04-27T05:10:33.844Z,6.58
2023-04-27T05:15:37.349Z,5.80
2023-04-27T05:20:39.141Z,5.60
2023-04-27T05:25:43.894Z,5.95
2023-04-27T05:30:45.494Z,5.87
2023-04-27T05:35:47.060Z,6.33
2023-04-27T05:40:56.973Z,5.85
2023-04-27T05:45:58.559Z,6.82
2023-04-27T05:51:03.738Z,7.03
2023-04-27T05:56:07.024Z,7.17
2023-04-27T06:01:08.703Z,7.53
2023-04-27T06:06:10.303Z,7.38
2023-04-27T06:11:11.924Z,7.69
2023-04-27T06:16:13.566Z,7.72
2023-04-27T06:21:15.366Z,7.10
2023-04-27T06:26:16.926Z,6.99
2023-04-27T06:31:18.573Z,6.99
2023-04-27T06:36:20.872Z,8.21
2023-04-27T06:41:26.528Z,7.78
2023-04-27T06:46:28.208Z,7.77
2023-04-27T06:51:29.822Z,9.13
2023-04-27T06:56:31.690Z,8.55
2023-04-27T07:01:33.387Z,9.48
2023-04-27T07:06:34.986Z,9.78
2023-04-27T07:11:36.728Z,7.78
2023-04-27T07:16:39.139Z,10.22
2023-04-27T07:21:41.192Z,8.96
2023-04-27T07:26:43.007Z,10.63
2023-04-27T07:31:44.629Z,8.58
2023-04-27T07:36:46.178Z,9.22
2023-04-27T07:41:48.287Z,10.37
2023-04-27T07:46:50.174Z,10.33
2023-04-27T07:51:52.031Z,9.24
2023-04-27T07:56:54.124Z,10.51
2023-04-27T08:02:04.094Z,10.30
2023-04-27T08:07:13.037Z,10.04
2023-04-27T08:12:14.812Z,11.14
2023-04-27T08:17:18.508Z,12.03
2023-04-27T08:22:20.159Z,12.58
2023-04-27T08:27:21.735Z,11.79
2023-04-27T08:32:23.313Z,12.91
2023-04-27T08:37:24.883Z,10.68
2023-04-27T08:42:26.595Z,12.53
2023-04-27T08:47:39.146Z,11.00
2023-04-27T08:52:48.656Z,13.27
2023-04-27T08:57:57.755Z,12.94
2023-04-27T09:03:04.143Z,13.83
2023-04-27T09:08:08.335Z,13.18
2023-04-27T09:13:09.965Z,13.22
2023-04-27T09:18:22.844Z,13.99
2023-04-27T09:23:31.438Z,14.15
2023-04-27T09:28:34.272Z,14.17
2023-04-27T09:33:36.308Z,13.83
2023-04-27T09:38:37.979Z,13.78
2023-04-27T09:43:41.319Z,13.63
2023-04-27T09:48:43.039Z,14.67
2023-04-27T09:53:52.979Z,15.00
2023-04-27T09:59:16.780Z,14.93
2023-04-27T10:04:41.839Z,15.33
2023-04-27T10:09:46.906Z,13.57
2023-04-27T10:14:57.122Z,13.72
2023-04-27T10:20:02.992Z,13.63
2023-04-27T10:25:12.973Z,14.70
2023-04-27T10:30:18.531Z,15.46
2023-04-27T10:35:24.044Z,15.14
2023-04-27T10:40:33.342Z,14.53
2023-04-27T10:45:34.898Z,14.48
2023-04-27T10:50:37.086Z,14.56
2023-04-27T10:55:38.779Z,15.53
2023-04-27T11:06:33.396Z,14.07
2023-04-27T11:11:35.067Z,13.72
2023-04-27T11:16:36.778Z,14.26
2023-04-27T11:21:38.889Z,15.31
2023-04-27T11:26:40.665Z,15.01
2023-04-27T11:31:49.377Z,13.91
2023-04-27T11:37:17.504Z,14.65
2023-04-27T11:42:28.976Z,15.48
2023-04-27T11:47:32.795Z,15.32
2023-04-27T11:52:36.605Z,16.37
2023-04-27T11:57:38.901Z,16.27
2023-04-27T12:02:42.327Z,16.07
2023-04-27T12:07:44.084Z,15.31
2023-04-27T12:12:46.066Z,15.64
2023-04-27T12:17:48.072Z,16.25
2023-04-27T12:22:49.663Z,16.12
2023-04-27T12:27:51.856Z,15.46
2023-04-27T12:32:53.491Z,14.18
2023-04-27T12:37:55.364Z,15.97
2023-04-27T12:42:58.541Z,16.39
2023-04-27T12:48:03.916Z,16.64
2023-04-27T12:53:05.922Z,16.18
2023-04-27T12:58:07.778Z,17.05
2023-04-27T13:03:09.631Z,16.93
2023-04-27T13:08:11.376Z,15.95
2023-04-27T13:13:13.048Z,17.10
2023-04-27T13:18:14.672Z,17.71
2023-04-27T13:23:16.632Z,16.80
2023-04-27T13:28:18.228Z,17.74
2023-04-27T13:33:23.086Z,17.88
2023-04-27T13:38:25.523Z,14.75
2023-04-27T13:43:27.226Z,17.12
2023-04-27T13:48:29.679Z,17.39
2023-04-27T13:53:31.363Z,16.95
2023-04-27T13:58:33.626Z,17.13
2023-04-27T14:03:35.811Z,17.57
2023-04-27T14:08:37.831Z,18.36
2023-04-27T14:13:39.391Z,17.87
2023-04-27T14:18:40.980Z,16.62
2023-04-27T14:23:42.529Z,18.24
2023-04-27T14:28:44.085Z,17.32
2023-04-27T14:33:45.656Z,16.82
2023-04-27T14:38:47.550Z,17.69
2023-04-27T14:43:49.268Z,17.94
2023-04-27T14:48:51.460Z,16.85
2023-04-27T14:53:53.151Z,16.46
2023-04-27T14:58:55.374Z,17.85
2023-04-27T15:03:58.057Z,16.47
2023-04-27T15:08:59.884Z,18.48
2023-04-27T15:14:01.496Z,17.43
2023-04-27T15:19:03.514Z,18.12
2023-04-27T15:24:05.340Z,17.16
2023-04-27T15:29:07.386Z,17.52
2023-04-27T15:34:08.997Z,16.95
2023-04-27T15:39:10.677Z,17.92
2023-04-27T15:44:12.307Z,15.66
2023-04-27T15:49:14.095Z,16.95
2023-04-27T15:54:17.957Z,19.03
2023-04-27T15:59:19.627Z,17.76
2023-04-27T16:04:21.481Z,17.79
2023-04-27T16:09:23.387Z,17.31
2023-04-27T16:14:24.996Z,18.56
2023-04-27T16:19:27.089Z,17.13
2023-04-27T16:24:30.499Z,17.04
2023-04-27T16:29:32.045Z,18.71
2023-04-27T16:34:33.678Z,18.93
2023-04-27T16:39:35.889Z,17.90
2023-04-27T16:44:38.032Z,18.01
2023-04-27T16:49:39.584Z,17.55
2023-04-27T16:54:41.139Z,16.39
2023-04-27T16:59:42.778Z,17.83
2023-04-27T17:04:44.445Z,18.28
2023-04-27T17:09:46.016Z,18.30
2023-04-27T17:14:47.600Z,17.31
2023-04-27T17:19:49.172Z,18.39
2023-04-27T17:24:50.689Z,18.52
2023-04-27T17:29:54.020Z,17.97
2023-04-27T17:34:55.724Z,18.60
2023-04-27T17:39:57.285Z,19.36
2023-04-27T17:44:58.843Z,18.34
2023-04-27T17:50:00.465Z,17.27
2023-04-27T17:55:02.036Z,18.98
2023-04-27T18:00:03.957Z,19.20
2023-04-27T18:05:06.324Z,18.53
2023-04-27T18:10:08.669Z,18.60
2023-04-27T18:15:10.552Z,18.82
2023-04-27T18:20:12.347Z,18.18
2023-04-27T18:25:14.149Z,18.81
2023-04-27T18:30:15.949Z,18.55
2023-04-27T18:35:17.543Z,17.78
2023-04-27T18:40:21.300Z,17.68
2023-04-27T18:45:22.908Z,17.91
2023-04-27T18:50:24.512Z,17.90
2023-04-27T18:55:26.169Z,17.45
2023-04-27T19:00:28.686Z,18.04
2023-04-27T19:05:30.538Z,18.02
2023-04-27T19:10:32.226Z,17.69
2023-04-27T19:15:34.035Z,17.14
2023-04-27T19:20:35.845Z,17.25
2023-04-27T19:25:37.612Z,17.53
2023-04-27T19:30:39.435Z,17.68
2023-04-27T19:35:42.225Z,17.49
2023-04-27T19:40:43.759Z,17.39
2023-04-27T19:45:45.458Z,17.02
2023-04-27T19:50:46.999Z,16.96
2023-04-27T19:55:48.568Z,17.35
2023-04-27T20:00:50.138Z,16.52
2023-04-27T20:05:52.645Z,17.18
2023-04-27T20:10:54.491Z,15.98
2023-04-27T20:15:57.624Z,16.78
2023-04-27T20:21:01.954Z,17.33
2023-04-27T20:26:03.699Z,17.01
2023-04-27T20:31:05.455Z,16.97
2023-04-27T20:36:17.167Z,16.44
2023-04-27T20:41:22.451Z,17.46
2023-04-27T20:46:23.984Z,17.50
2023-04-27T20:51:26.317Z,17.46
2023-04-27T20:56:30.637Z,16.56
2023-04-27T21:01:32.303Z,16.49
2023-04-27T21:06:34.146Z,16.12
2023-04-27T21:11:36.152Z,15.33
2023-04-27T21:16:37.770Z,15.10
2023-04-27T21:21:39.353Z,15.49
2023-04-27T21:26:42.314Z,14.52
2023-04-27T21:31:43.944Z,14.56
2023-04-27T21:36:45.469Z,16.01
2023-04-27T21:41:47.027Z,12.95
2023-04-27T21:46:48.657Z,14.03
2023-04-27T21:51:50.301Z,13.50
2023-04-27T21:56:51.866Z,13.78
2023-04-27T22:01:53.743Z,14.90
2023-04-27T22:06:55.298Z,13.81
2023-04-27T22:11:56.862Z,12.61
2023-04-27T22:16:58.561Z,13.38
2023-04-27T22:22:00.322Z,12.98
2023-04-27T22:27:02.060Z,13.40
2023-04-27T22:32:04.125Z,14.32
2023-04-27T22:37:07.037Z,13.23
2023-04-27T22:42:08.657Z,14.19
2023-04-27T22:47:10.863Z,13.61
2023-04-27T22:52:12.557Z,14.59
2023-04-27T22:57:14.136Z,14.84
2023-04-27T23:02:15.781Z,13.03
2023-04-27T23:07:18.302Z,13.13
2023-04-27T23:12:20.762Z,12.58
2023-04-27T23:17:22.860Z,13.71
2023-04-27T23:22:25.067Z,12.80
2023-04-27T23:27:26.700Z,12.14
2023-04-27T23:32:28.381Z,12.37
2023-04-27T23:37:29.984Z,12.77
2023-04-27T23:42:31.668Z,12.68
2023-04-27T23:47:34.041Z,12.47
2023-04-27T23:52:35.781Z,11.73
2023-04-27T23:57:37.411Z,11.79
